Time;durP1;ratioP1;P1;durP2;ratioP2;P2;SDS_P1;SDS_P2;PMS_P1;PMS_P2;Temp;Humidity;BMP_temperature;BMP_pressure;BME280_temperature;BME280_humidity;BME280_pressure;Samples;Min_cycle;Max_cycle;Signal;HPM_P1;HPM_P2
2022/07/08 00:03:06;;;;;;;1.63;0.77;;;;;;;18.51;61.16;97691.69;10392553;28;20038;-23
2022/07/08 00:08:06;;;;;;;1.43;1.00;;;;;;;18.50;61.08;97688.28;10389685;28;20197;-23
2022/07/08 00:13:07;;;;;;;1.03;0.70;;;;;;;18.48;61.11;97681.50;10394061;28;20304;-24
2022/07/08 00:18:07;;;;;;;2.42;0.80;;;;;;;18.47;60.93;97674.72;10391743;28;20026;-23
2022/07/08 00:23:07;;;;;;;2.60;0.93;;;;;;;18.48;61.29;97673.88;10388670;28;20037;-25
2022/07/08 00:28:08;;;;;;;1.23;0.80;;;;;;;18.47;61.41;97677.25;10398105;28;20034;-23
2022/07/08 00:33:08;;;;;;;1.10;0.57;;;;;;;18.45;61.30;97673.84;10390866;28;20644;-23
2022/07/08 00:38:08;;;;;;;1.23;0.70;;;;;;;18.40;61.48;97685.63;10395492;28;20033;-24
2022/07/08 00:43:39;;;;;;;1.00;0.70;;;;;;;18.40;61.58;97683.09;10386421;28;20045;-24
2022/07/08 00:48:40;;;;;;;1.55;0.75;;;;;;;18.42;61.54;97683.94;10391011;28;20084;-24
2022/07/08 00:53:45;;;;;;;1.10;0.95;;;;;;;18.33;61.90;97688.88;10394132;28;20029;-24
2022/07/08 00:58:46;;;;;;;1.02;0.93;;;;;;;18.24;62.81;97696.31;10394178;28;20034;-25
2022/07/08 01:03:47;;;;;;;2.35;1.58;;;;;;;18.17;63.28;97697.88;10387888;28;20034;-24
2022/07/08 01:08:48;;;;;;;2.60;1.20;;;;;;;18.05;63.87;97696.81;10396490;28;20035;-25
2022/07/08 01:13:48;;;;;;;1.70;1.10;;;;;;;18.03;63.52;97699.34;10384968;28;20034;-23
2022/07/08 01:18:49;;;;;;;4.03;1.30;;;;;;;18.00;63.21;97691.66;10391620;28;20512;-23
2022/07/08 01:23:49;;;;;;;1.08;0.85;;;;;;;18.00;63.24;97686.59;10390244;28;20303;-23
2022/07/08 01:28:50;;;;;;;1.27;0.83;;;;;;;18.02;63.34;97689.16;10402009;28;20037;-24
2022/07/08 01:33:50;;;;;;;1.98;1.08;;;;;;;18.05;63.64;97692.59;10390396;28;20040;-23
2022/07/08 01:38:51;;;;;;;2.33;1.60;;;;;;;17.97;63.62;97688.22;10395138;28;20504;-23
2022/07/08 01:43:51;;;;;;;1.10;1.00;;;;;;;18.14;63.16;97686.81;10388378;28;20112;-25
2022/07/08 01:48:52;;;;;;;2.00;1.30;;;;;;;18.10;63.18;97695.22;10400349;28;20284;-23
2022/07/08 01:53:52;;;;;;;1.50;1.30;;;;;;;17.99;63.68;97701.78;10393790;28;20280;-23
2022/07/08 01:58:52;;;;;;;4.57;1.10;;;;;;;17.91;63.79;97698.28;10401561;28;20288;-25
2022/07/08 02:03:53;;;;;;;2.17;1.30;;;;;;;17.98;63.49;97702.63;10394856;28;20037;-25
2022/07/08 02:08:54;;;;;;;2.43;1.03;;;;;;;17.87;63.64;97687.22;10403280;28;20048;-26
2022/07/08 02:13:54;;;;;;;3.17;1.38;;;;;;;17.79;63.67;97692.97;10399482;28;20288;-24
2022/07/08 02:18:54;;;;;;;1.77;0.97;;;;;;;17.84;63.44;97706.59;10397144;28;20026;-24
2022/07/08 02:23:55;;;;;;;3.35;0.90;;;;;;;17.81;63.63;97709.91;10395481;28;20116;-25
2022/07/08 02:28:55;;;;;;;2.13;1.20;;;;;;;17.70;63.27;97693.66;10407855;28;20037;-24
2022/07/08 02:33:56;;;;;;;2.27;0.90;;;;;;;17.75;63.77;97706.41;10391963;28;20395;-25
2022/07/08 02:38:56;;;;;;;2.10;1.10;;;;;;;17.71;63.48;97717.28;10399268;28;20476;-23
2022/07/08 02:43:57;;;;;;;2.13;1.30;;;;;;;17.66;63.38;97707.09;10393295;28;20056;-24
2022/07/08 02:48:57;;;;;;;2.25;1.27;;;;;;;17.69;63.29;97722.34;10397895;28;20057;-26
2022/07/08 02:53:57;;;;;;;1.90;0.97;;;;;;;17.53;63.70;97716.94;10393913;28;20442;-24
2022/07/08 02:58:59;;;;;;;1.83;1.10;;;;;;;17.69;63.32;97731.63;10398680;28;20384;-23
2022/07/08 03:03:59;;;;;;;2.72;1.02;;;;;;;17.51;63.79;97732.09;10391573;28;20120;-25
2022/07/08 03:09:00;;;;;;;3.17;1.35;;;;;;;17.54;63.73;97738.91;10391202;28;20423;-25
2022/07/08 03:14:00;;;;;;;2.00;1.20;;;;;;;17.40;64.11;97742.88;10398122;28;20471;-23
2022/07/08 03:19:00;;;;;;;2.30;1.50;;;;;;;17.37;63.95;97747.84;10393844;28;20343;-23
2022/07/08 03:24:01;;;;;;;2.45;1.20;;;;;;;17.31;63.90;97757.84;10394939;28;20029;-23
2022/07/08 03:29:01;;;;;;;1.63;0.87;;;;;;;17.32;63.63;97765.44;10402786;28;20048;-23
2022/07/08 03:34:02;;;;;;;5.63;1.20;;;;;;;17.37;62.81;97768.09;10391556;28;20025;-22
2022/07/08 03:39:02;;;;;;;3.22;1.30;;;;;;;17.27;63.81;97781.34;10397088;28;20042;-22
2022/07/08 03:44:03;;;;;;;3.63;0.95;;;;;;;17.33;63.31;97772.22;10383991;28;20041;-23
2022/07/08 03:49:04;;;;;;;1.13;0.90;;;;;;;17.19;63.92;97781.19;10401704;28;20301;-25
2022/07/08 03:54:04;;;;;;;2.13;1.00;;;;;;;17.18;64.06;97786.22;10391928;28;20422;-24
2022/07/08 03:59:04;;;;;;;5.27;1.23;;;;;;;17.23;63.77;97785.50;10393748;28;20060;-23
2022/07/08 04:04:05;;;;;;;1.92;1.00;;;;;;;17.27;63.82;97791.47;10394205;28;20803;-25
2022/07/08 04:09:05;;;;;;;2.27;1.00;;;;;;;17.20;63.83;97794.69;10392905;28;20431;-22
2022/07/08 04:14:05;;;;;;;1.40;1.10;;;;;;;17.28;63.65;97803.31;10392616;28;20322;-24
2022/07/08 04:19:06;;;;;;;1.10;0.90;;;;;;;17.35;63.67;97802.63;10395482;28;20048;-24
2022/07/08 04:24:07;;;;;;;1.20;1.10;;;;;;;17.19;63.75;97803.09;10390245;28;20042;-24
2022/07/08 04:29:07;;;;;;;2.83;1.20;;;;;;;17.16;64.25;97803.88;10392793;28;20453;-22
2022/07/08 04:34:08;;;;;;;2.00;0.97;;;;;;;17.07;64.40;97812.97;10390387;28;20415;-23
2022/07/08 04:39:08;;;;;;;3.80;1.50;;;;;;;16.96;64.52;97819.44;10395635;28;20521;-23
2022/07/08 04:44:09;;;;;;;2.23;1.73;;;;;;;16.96;64.35;97819.44;10398531;28;20112;-23
2022/07/08 04:49:11;;;;;;;3.25;1.27;;;;;;;16.85;64.40;97821.75;10394173;28;20373;-23
2022/07/08 04:54:11;;;;;;;2.10;1.20;;;;;;;17.89;61.35;97818.97;10391038;28;20063;-22
2022/07/08 04:59:12;;;;;;;2.47;1.30;;;;;;;18.19;59.68;97819.56;10393466;28;20037;-21
2022/07/08 05:04:12;;;;;;;2.00;1.40;;;;;;;18.42;59.40;97815.81;10387358;28;20038;-22
2022/07/08 05:09:13;;;;;;;4.33;1.53;;;;;;;18.55;58.90;97816.03;10396421;28;20494;-23
2022/07/08 05:14:13;;;;;;;4.88;1.35;;;;;;;18.70;58.63;97823.03;10392639;28;20342;-23
2022/07/08 05:19:14;;;;;;;2.00;1.15;;;;;;;18.78;58.58;97831.63;10392136;28;20041;-22
2022/07/08 05:24:14;;;;;;;2.37;1.20;;;;;;;18.83;58.55;97832.56;10393665;28;20423;-22
2022/07/08 05:29:15;;;;;;;4.28;1.30;;;;;;;18.82;58.42;97818.19;10400522;28;20296;-21
2022/07/08 05:34:16;;;;;;;4.35;1.50;;;;;;;18.81;58.81;97811.38;10390497;28;20477;-22
2022/07/08 05:39:16;;;;;;;2.97;1.27;;;;;;;18.72;58.80;97801.09;10394778;28;20029;-22
2022/07/08 05:44:17;;;;;;;6.00;1.40;;;;;;;18.96;58.44;97816.69;10387588;28;20244;-22
2022/07/08 05:49:17;;;;;;;4.27;1.27;;;;;;;19.08;58.32;97821.97;10392896;28;20029;-21
2022/07/08 05:54:17;;;;;;;5.20;1.10;;;;;;;19.05;58.48;97824.44;10381731;28;20431;-22
2022/07/08 05:59:18;;;;;;;2.27;0.90;;;;;;;19.02;58.45;97817.63;10390688;28;20831;-22
2022/07/08 06:04:18;;;;;;;1.63;1.05;;;;;;;19.03;58.36;97813.44;10388935;28;20548;-25
2022/07/08 06:09:18;;;;;;;3.40;0.93;;;;;;;19.06;58.30;97826.16;10390421;28;20112;-24
2022/07/08 06:14:19;;;;;;;2.23;1.30;;;;;;;19.08;58.21;97827.06;10387645;28;20057;-23
2022/07/08 06:19:19;;;;;;;2.15;0.85;;;;;;;19.07;58.41;97828.72;10387787;28;20030;-22
2022/07/08 06:24:20;;;;;;;1.73;0.80;;;;;;;19.09;58.36;97824.53;10389606;28;20025;-23
2022/07/08 06:29:20;;;;;;;1.50;0.88;;;;;;;19.11;58.39;97824.56;10401837;28;20030;-23
2022/07/08 06:34:21;;;;;;;1.23;0.82;;;;;;;19.06;58.28;97808.38;10396022;28;20029;-22
2022/07/08 06:39:21;;;;;;;2.00;1.00;;;;;;;19.15;58.22;97818.69;10394070;28;20038;-23
2022/07/08 06:44:22;;;;;;;1.42;0.80;;;;;;;19.29;58.21;97820.63;10392933;28;20033;-23
2022/07/08 06:49:22;;;;;;;2.27;1.20;;;;;;;19.32;57.97;97819.81;10397667;28;20037;-23
2022/07/08 06:54:37;;;;;;;1.53;0.80;;;;;;;19.25;57.78;97835.81;10395809;28;20041;-22
2022/07/08 06:59:38;;;;;;;1.20;0.80;;;;;;;19.20;57.91;97827.25;10396329;28;20463;-23
2022/07/08 07:04:39;;;;;;;1.63;0.70;;;;;;;19.22;58.10;97826.47;10396391;28;20034;-23
2022/07/08 07:09:39;;;;;;;0.77;0.70;;;;;;;19.23;58.27;97822.22;10397528;28;20056;-22
2022/07/08 07:14:40;;;;;;;0.60;0.60;;;;;;;19.23;58.03;97840.00;10393515;28;20327;-22
2022/07/08 07:19:40;;;;;;;2.15;0.70;;;;;;;19.23;58.20;97837.44;10395910;28;20030;-23
2022/07/08 07:24:41;;;;;;;1.77;0.97;;;;;;;19.21;58.11;97832.38;10396508;28;20030;-22
2022/07/08 07:29:42;;;;;;;1.55;0.80;;;;;;;19.23;58.03;97830.69;10399950;28;20040;-24
2022/07/08 07:34:42;;;;;;;1.47;0.80;;;;;;;19.23;58.06;97833.25;10393338;28;20030;-23
2022/07/08 07:39:42;;;;;;;2.27;0.90;;;;;;;19.30;58.05;97836.72;10399742;28;20049;-23
2022/07/08 07:44:43;;;;;;;1.77;1.00;;;;;;;19.43;57.95;97836.06;10395196;28;20798;-24
2022/07/08 07:49:43;;;;;;;1.17;0.80;;;;;;;19.43;57.70;97831.00;10395487;28;20091;-23
2022/07/08 07:54:43;;;;;;;1.47;0.90;;;;;;;19.35;57.84;97827.50;10396931;28;20503;-23
2022/07/08 07:59:45;;;;;;;0.80;0.80;;;;;;;19.30;57.59;97824.88;10392305;28;20041;-22
2022/07/08 08:04:45;;;;;;;2.20;0.60;;;;;;;19.33;58.18;97834.25;10395617;28;20452;-22
2022/07/08 08:09:45;;;;;;;1.33;0.87;;;;;;;19.32;57.83;97837.56;10390074;28;20575;-24
2022/07/08 08:14:46;;;;;;;1.53;0.70;;;;;;;19.32;57.89;97840.13;10393035;28;20041;-23
2022/07/08 08:19:46;;;;;;;2.13;0.60;;;;;;;19.31;57.96;97851.13;10391203;28;20038;-22
2022/07/08 08:24:46;;;;;;;1.23;0.70;;;;;;;19.31;58.10;97851.97;10393864;28;20095;-22
2022/07/08 08:29:47;;;;;;;1.47;0.87;;;;;;;19.31;57.91;97857.06;10401995;28;20117;-23
2022/07/08 08:34:47;;;;;;;1.77;0.60;;;;;;;19.32;58.00;97862.97;10390847;28;20080;-22
2022/07/08 08:39:48;;;;;;;1.15;0.90;;;;;;;19.39;57.89;97862.25;10388349;28;20091;-22
2022/07/08 08:44:49;;;;;;;2.03;0.90;;;;;;;19.52;57.59;97861.59;10393088;28;20099;-22
2022/07/08 08:49:54;;;;;;;1.38;0.90;;;;;;;19.49;57.59;97859.03;10393490;28;20064;-23
2022/07/08 08:54:55;;;;;;;0.85;0.50;;;;;;;19.42;57.86;97857.22;10389279;28;20080;-22
2022/07/08 08:59:56;;;;;;;0.60;0.60;;;;;;;19.37;57.83;97846.13;10384925;28;20314;-22
2022/07/08 09:04:56;;;;;;;0.77;0.60;;;;;;;19.37;57.92;97841.06;10391724;28;20037;-23
2022/07/08 09:09:56;;;;;;;0.80;0.77;;;;;;;19.36;57.82;97845.28;10391986;28;20033;-23
2022/07/08 09:15:00;;;;;;;0.60;0.60;;;;;;;19.36;58.03;97842.75;10392730;28;20375;-25
2022/07/08 09:20:01;;;;;;;1.98;0.70;;;;;;;19.36;57.92;97829.19;10395242;28;20068;-22
2022/07/08 09:25:01;;;;;;;0.70;0.70;;;;;;;19.37;58.08;97830.91;10391262;28;20232;-22
2022/07/08 09:30:02;;;;;;;1.00;0.70;;;;;;;19.37;57.97;97821.59;10399245;28;20031;-23
2022/07/08 09:35:11;;;;;;;2.90;0.70;;;;;;;19.36;57.98;97824.97;10387979;28;20484;-23
2022/07/08 09:40:18;;;;;;;1.02;0.70;;;;;;;19.51;57.95;97827.69;10393434;28;20037;-22
2022/07/08 09:45:18;;;;;;;1.60;0.85;;;;;;;19.58;57.89;97826.97;10397885;28;20029;-23
2022/07/08 09:50:30;;;;;;;1.93;0.63;;;;;;;19.50;57.57;97838.69;10388631;28;20053;-17
2022/07/08 09:55:33;;;;;;;1.60;0.80;;;;;;;19.46;57.76;97836.97;10383410;28;20113;-24
2022/07/08 10:00:34;;;;;;;1.33;0.73;;;;;;;19.43;57.95;97838.59;10396142;28;20037;-24
2022/07/08 10:05:34;;;;;;;1.55;0.70;;;;;;;19.42;57.82;97834.38;10393523;28;20392;-24
2022/07/08 10:10:36;;;;;;;1.15;0.70;;;;;;;19.43;58.02;97841.16;10395902;28;20041;-23
2022/07/08 10:15:38;;;;;;;0.98;0.52;;;;;;;19.39;58.04;97839.38;10399300;28;20033;-23
2022/07/08 10:20:43;;;;;;;1.10;0.50;;;;;;;19.32;58.12;97819.81;10392174;28;20029;-22
2022/07/08 10:25:44;;;;;;;3.80;1.10;;;;;;;19.40;58.13;97841.09;10396711;28;20598;-23
2022/07/08 10:30:50;;;;;;;1.92;1.10;;;;;;;19.39;58.30;97831.75;10404562;28;20065;-23
2022/07/08 10:36:07;;;;;;;1.52;0.82;;;;;;;19.47;58.33;97832.72;10396431;28;20415;-24
2022/07/08 10:41:09;;;;;;;12.43;2.25;;;;;;;19.62;57.99;97822.78;10398797;28;20087;-24
2022/07/08 10:46:12;;;;;;;8.40;1.67;;;;;;;19.61;57.71;97821.06;10396741;28;20063;-22
2022/07/08 10:51:18;;;;;;;3.33;1.15;;;;;;;19.50;57.88;97832.78;10392939;28;20037;-24
2022/07/08 10:56:53;;;;;;;1.88;0.95;;;;;;;19.46;57.99;97836.09;10397472;28;20076;-22
2022/07/08 11:01:57;;;;;;;8.57;4.47;;;;;;;19.37;58.29;97828.34;10395037;28;20175;-21
2022/07/08 11:07:16;;;;;;;4.05;2.70;;;;;;;19.42;58.01;97826.75;10400225;28;20104;-23
2022/07/08 11:12:20;;;;;;;2.10;1.60;;;;;;;19.42;58.05;97830.13;10392033;28;20038;-23
2022/07/08 11:17:24;;;;;;;2.10;1.25;;;;;;;19.42;58.04;97824.22;10389516;28;20025;-23
2022/07/08 11:22:26;;;;;;;2.53;1.52;;;;;;;19.43;58.08;97823.38;10390087;28;20038;-23
2022/07/08 11:27:31;;;;;;;1.90;1.30;;;;;;;19.42;58.10;97834.38;10398906;28;20060;-24
2022/07/08 11:32:31;;;;;;;3.47;1.40;;;;;;;19.44;58.33;97835.22;10391587;28;20037;-25
2022/07/08 11:37:32;;;;;;;9.47;3.17;;;;;;;19.61;56.94;97821.06;10389802;28;20400;-24
2022/07/08 11:42:36;;;;;;;19.30;3.42;;;;;;;19.70;56.63;97818.63;10386723;28;20289;-22
2022/07/08 11:47:38;;;;;;;2.05;1.42;;;;;;;19.57;58.44;97825.25;10400369;28;20025;-25
2022/07/08 11:52:38;;;;;;;9.43;1.95;;;;;;;19.49;58.71;97819.22;10391323;28;20029;-23
2022/07/08 11:57:40;;;;;;;3.17;1.48;;;;;;;19.48;58.82;97825.13;10389062;28;20518;-23
2022/07/08 12:02:41;;;;;;;4.20;1.35;;;;;;;19.46;58.92;97821.72;10391918;28;20558;-23
2022/07/08 12:07:41;;;;;;;2.13;1.33;;;;;;;19.45;58.73;97819.16;10390443;28;20034;-22
2022/07/08 12:12:41;;;;;;;2.23;1.33;;;;;;;19.43;59.01;97815.75;10385727;28;20038;-23
2022/07/08 12:17:42;;;;;;;3.47;1.43;;;;;;;19.40;58.89;97805.53;10389958;28;20163;-24
2022/07/08 12:22:46;;;;;;;5.00;1.38;;;;;;;19.42;58.90;97808.97;10391045;28;20049;-23
2022/07/08 12:27:59;;;;;;;2.80;1.20;;;;;;;19.42;58.87;97798.81;10396263;28;20401;-24
2022/07/08 12:33:01;;;;;;;8.15;2.15;;;;;;;19.51;57.35;97801.47;10392202;28;20048;-24
2022/07/08 12:38:06;;;;;;;6.10;2.30;;;;;;;19.67;56.81;97794.03;10391478;28;20111;-24
2022/07/08 12:43:08;;;;;;;5.13;1.75;;;;;;;19.67;57.45;97796.59;10386938;28;20478;-25
2022/07/08 12:48:08;;;;;;;1.30;1.00;;;;;;;19.59;58.07;97789.72;10396708;28;20053;-23
2022/07/08 12:53:09;;;;;;;4.13;1.23;;;;;;;19.54;58.25;97793.88;10385352;28;20036;-23
2022/07/08 12:58:10;;;;;;;2.55;1.00;;;;;;;19.51;58.58;97796.38;10397006;28;20033;-24
2022/07/08 13:03:10;;;;;;;1.43;0.97;;;;;;;19.45;58.48;97783.59;10391291;28;20030;-22
2022/07/08 13:08:10;;;;;;;2.10;1.20;;;;;;;19.45;58.61;97793.75;10395373;28;20480;-23
2022/07/08 13:13:11;;;;;;;2.43;0.90;;;;;;;19.46;58.40;97790.38;10391203;28;20283;-23
2022/07/08 13:18:11;;;;;;;2.97;1.20;;;;;;;19.46;58.51;97787.84;10389622;28;20280;-22
2022/07/08 13:23:12;;;;;;;2.07;1.10;;;;;;;19.47;58.46;97795.50;10382777;28;20037;-22
2022/07/08 13:28:13;;;;;;;1.95;1.20;;;;;;;19.48;58.33;97793.78;10401724;28;20049;-23
2022/07/08 13:33:14;;;;;;;5.75;2.03;;;;;;;19.66;56.56;97788.97;10390535;28;20053;-22
2022/07/08 13:38:14;;;;;;;4.20;1.90;;;;;;;19.74;56.22;97792.41;10395172;28;20091;-22
2022/07/08 13:43:15;;;;;;;2.58;1.50;;;;;;;19.67;57.30;97790.66;10393908;28;20025;-22
2022/07/08 13:48:16;;;;;;;2.33;0.90;;;;;;;19.60;57.87;97788.88;10400522;28;20036;-22
2022/07/08 13:53:16;;;;;;;3.78;1.00;;;;;;;19.55;58.22;97790.50;10394689;28;20034;-22
2022/07/08 13:58:17;;;;;;;1.10;0.90;;;;;;;19.52;58.29;97781.16;10401665;28;20391;-24
2022/07/08 14:03:17;;;;;;;1.27;1.00;;;;;;;19.44;58.16;97775.09;10397455;28;20292;-25
2022/07/08 14:08:18;;;;;;;1.00;0.90;;;;;;;19.51;58.40;97778.59;10402317;28;20972;-23
2022/07/08 14:13:18;;;;;;;2.03;1.20;;;;;;;19.54;58.22;97778.63;10400051;28;20318;-24
2022/07/08 14:18:18;;;;;;;2.73;1.10;;;;;;;19.46;58.20;97759.91;10394833;28;20030;-25
2022/07/08 14:23:19;;;;;;;3.53;1.58;;;;;;;19.52;58.13;97762.53;10401239;28;20607;-24
2022/07/08 14:28:19;;;;;;;7.15;2.55;;;;;;;19.57;57.37;97758.34;10403928;28;20034;-22
2022/07/08 14:33:20;;;;;;;5.50;2.10;;;;;;;19.75;55.98;97754.34;10397889;28;20022;-23
2022/07/08 14:38:21;;;;;;;8.88;2.15;;;;;;;19.79;56.48;97762.84;10395504;28;20377;-23
2022/07/08 14:43:21;;;;;;;1.23;1.00;;;;;;;19.65;57.74;97761.81;10391056;28;20033;-22
2022/07/08 14:48:21;;;;;;;1.07;0.73;;;;;;;19.55;58.08;97762.56;10396798;28;20038;-22
2022/07/08 14:53:22;;;;;;;3.33;1.00;;;;;;;19.55;58.13;97760.00;10390896;28;20022;-21
2022/07/08 14:58:22;;;;;;;1.87;1.00;;;;;;;19.49;58.21;97747.25;10399392;28;20284;-22
2022/07/08 15:03:23;;;;;;;1.35;0.80;;;;;;;19.56;58.07;97751.56;10392280;28;20088;-24
2022/07/08 15:08:25;;;;;;;1.93;1.40;;;;;;;19.55;58.13;97758.34;10394892;28;20484;-23
2022/07/08 15:13:26;;;;;;;1.83;1.30;;;;;;;19.56;58.24;97756.63;10388981;28;20379;-24
2022/07/08 15:18:26;;;;;;;1.48;0.80;;;;;;;19.56;58.09;97761.72;10384435;28;20034;-24
2022/07/08 15:23:27;;;;;;;1.83;1.30;;;;;;;19.49;58.08;97749.81;10390959;28;20058;-23
2022/07/08 15:28:27;;;;;;;4.45;2.00;;;;;;;19.69;56.48;97746.63;10399281;28;20033;-22
2022/07/08 15:33:28;;;;;;;6.13;2.00;;;;;;;19.82;55.87;97745.94;10391250;28;20030;-22
2022/07/08 15:38:28;;;;;;;1.30;1.00;;;;;;;19.73;57.43;97743.31;10391508;28;20795;-21
2022/07/08 15:43:29;;;;;;;2.72;0.90;;;;;;;19.69;57.75;97738.19;10385727;28;20092;-25
2022/07/08 15:48:29;;;;;;;0.75;0.70;;;;;;;19.64;57.88;97739.78;10391672;28;20328;-22
2022/07/08 15:53:30;;;;;;;8.13;1.57;;;;;;;19.65;57.78;97736.41;10397967;28;20480;-22
2022/07/08 15:58:30;;;;;;;2.17;1.10;;;;;;;19.63;58.00;97738.09;10390022;28;20292;-24
2022/07/08 16:03:31;;;;;;;2.70;1.00;;;;;;;19.62;57.92;97732.19;10388924;28;20405;-22
2022/07/08 16:08:31;;;;;;;7.30;1.10;;;;;;;19.62;58.29;97738.94;10396314;28;20029;-24
2022/07/08 16:13:33;;;;;;;2.42;1.33;;;;;;;19.61;57.91;97732.97;10394899;28;20042;-22
2022/07/08 16:18:33;;;;;;;1.63;0.77;;;;;;;19.61;58.09;97737.22;10389240;28;20312;-23
2022/07/08 16:23:34;;;;;;;3.47;1.70;;;;;;;19.79;57.24;97739.97;10392814;28;20080;-23
2022/07/08 16:28:36;;;;;;;2.85;1.60;;;;;;;19.86;56.94;97726.50;10401339;28;20291;-22
2022/07/08 16:33:37;;;;;;;1.52;1.15;;;;;;;19.73;57.64;97732.28;10391132;28;20025;-23
2022/07/08 16:38:38;;;;;;;2.23;0.97;;;;;;;19.67;57.72;97727.16;10391048;28;20032;-23
2022/07/08 16:43:38;;;;;;;2.83;0.95;;;;;;;19.62;58.22;97736.41;10395107;28;20108;-23
2022/07/08 16:48:38;;;;;;;2.13;1.00;;;;;;;19.62;58.15;97739.81;10389992;28;20039;-22
2022/07/08 16:53:40;;;;;;;10.10;1.00;;;;;;;19.58;58.19;97729.59;10390522;28;20887;-23
2022/07/08 16:58:40;;;;;;;4.32;0.90;;;;;;;19.63;58.30;97743.19;10391737;28;20301;-24
2022/07/08 17:03:41;;;;;;;1.33;0.93;;;;;;;19.62;58.10;97741.47;10390655;28;20044;-24
2022/07/08 17:08:41;;;;;;;5.13;1.30;;;;;;;19.68;57.73;97742.38;10394309;28;20041;-23
2022/07/08 17:13:42;;;;;;;9.40;1.83;;;;;;;19.90;57.23;97746.00;10394506;28;20076;-23
2022/07/08 17:18:42;;;;;;;3.40;1.40;;;;;;;19.91;57.37;97735.03;10394327;28;20045;-22
2022/07/08 17:23:43;;;;;;;1.80;0.90;;;;;;;19.76;57.60;97738.25;10394479;28;20288;-22
2022/07/08 17:28:43;;;;;;;5.93;0.90;;;;;;;19.71;58.03;97741.56;10401454;28;20295;-21
2022/07/08 17:33:43;;;;;;;2.87;1.30;;;;;;;19.66;58.14;97745.78;10390360;28;20037;-23
2022/07/08 17:38:44;;;;;;;1.60;0.90;;;;;;;19.64;58.25;97742.34;10394746;28;20048;-22
2022/07/08 17:43:44;;;;;;;1.27;0.87;;;;;;;19.64;58.07;97749.97;10382302;28;20360;-23
2022/07/08 17:48:44;;;;;;;1.40;0.90;;;;;;;19.63;58.18;97738.09;10390629;28;20064;-23
2022/07/08 17:53:45;;;;;;;0.93;0.80;;;;;;;19.64;58.31;97744.88;10382788;28;20038;-22
2022/07/08 17:58:45;;;;;;;1.33;0.90;;;;;;;19.64;58.27;97734.72;10394231;28;20037;-22
2022/07/08 18:03:45;;;;;;;2.87;1.10;;;;;;;19.56;58.33;97726.16;10388617;28;20064;-22
2022/07/08 18:08:46;;;;;;;4.57;1.80;;;;;;;19.86;58.17;97736.66;10393593;28;20038;-21
2022/07/08 18:13:46;;;;;;;3.63;1.40;;;;;;;19.92;58.41;97745.19;10393585;28;20037;-23
2022/07/08 18:18:47;;;;;;;4.65;1.42;;;;;;;19.79;57.53;97750.13;10382907;28;20033;-23
2022/07/08 18:23:47;;;;;;;3.97;0.90;;;;;;;19.63;58.00;97735.56;10387768;28;20095;-21
2022/07/08 18:28:47;;;;;;;2.60;0.70;;;;;;;19.67;58.20;97745.75;10400271;28;20475;-22
2022/07/08 18:33:48;;;;;;;0.97;0.80;;;;;;;19.65;58.37;97752.53;10401721;28;20514;-24
2022/07/08 18:38:48;;;;;;;1.42;0.82;;;;;;;19.66;58.25;97745.78;10391835;28;20424;-23
2022/07/08 18:43:49;;;;;;;1.90;0.80;;;;;;;19.63;58.26;97743.19;10394259;28;20075;-21
2022/07/08 18:48:49;;;;;;;2.03;1.07;;;;;;;19.58;58.44;97739.75;10402254;28;20292;-22
2022/07/08 18:53:49;;;;;;;2.00;0.70;;;;;;;19.66;58.36;97751.69;10393816;28;20117;-23
2022/07/08 18:58:50;;;;;;;1.33;0.97;;;;;;;19.63;58.54;97748.25;10399012;28;20040;-22
2022/07/08 19:03:50;;;;;;;3.37;1.30;;;;;;;19.81;58.74;97753.53;10394417;28;20291;-22
2022/07/08 19:08:50;;;;;;;1.70;1.00;;;;;;;19.94;58.05;97755.41;10398938;28;20037;-24
2022/07/08 19:13:51;;;;;;;1.33;0.93;;;;;;;19.87;57.77;97753.63;10392001;28;20294;-23
2022/07/08 19:18:52;;;;;;;1.52;0.85;;;;;;;19.77;58.09;97756.91;10393937;28;20287;-22
2022/07/08 19:23:53;;;;;;;1.13;0.70;;;;;;;19.72;58.28;97758.53;10392565;28;20038;-23
2022/07/08 19:28:54;;;;;;;1.30;0.90;;;;;;;19.68;58.40;97777.13;10406091;28;20454;-23
2022/07/08 19:33:54;;;;;;;1.37;0.80;;;;;;;19.65;58.29;97777.06;10393456;28;20022;-23
2022/07/08 19:38:54;;;;;;;2.03;0.90;;;;;;;19.63;58.39;97776.19;10397980;28;20029;-23
2022/07/08 19:43:55;;;;;;;1.13;0.90;;;;;;;19.69;58.49;97787.28;10396454;28;20045;-23
2022/07/08 19:48:55;;;;;;;1.30;1.00;;;;;;;19.80;58.48;97788.28;10395750;28;20087;-24
2022/07/08 19:53:56;;;;;;;2.13;1.30;;;;;;;19.87;57.88;97773.94;10340009;28;20044;-24
2022/07/08 19:58:56;;;;;;;1.05;0.70;;;;;;;19.91;57.82;97784.16;10350481;28;20033;-24
2022/07/08 20:03:58;;;;;;;0.70;0.70;;;;;;;19.79;58.15;97793.34;10350315;28;20496;-23
2022/07/08 20:08:58;;;;;;;0.90;0.70;;;;;;;19.72;57.88;97789.88;10389792;28;20918;-23
2022/07/08 20:13:59;;;;;;;0.75;0.75;;;;;;;19.67;58.35;97800.84;10396708;28;20033;-24
2022/07/08 20:18:59;;;;;;;1.52;0.70;;;;;;;19.65;58.44;97807.56;10391959;28;20424;-25
2022/07/08 20:24:01;;;;;;;1.17;0.60;;;;;;;19.62;58.69;97805.84;10397479;28;20495;-23
2022/07/08 20:29:03;;;;;;;1.63;0.68;;;;;;;19.63;58.41;97811.78;10399772;28;20033;-24
2022/07/08 20:34:03;;;;;;;1.15;0.70;;;;;;;19.65;58.33;97816.03;10390480;28;20507;-24
2022/07/08 20:39:04;;;;;;;3.17;1.50;;;;;;;19.87;56.85;97817.16;10393775;28;20040;-22
2022/07/08 20:44:04;;;;;;;4.23;1.40;;;;;;;19.96;56.67;97824.88;10397892;28;20034;-24
2022/07/08 20:49:04;;;;;;;1.50;0.90;;;;;;;19.82;57.59;97826.41;10388190;28;20029;-23
2022/07/08 20:54:05;;;;;;;0.93;0.67;;;;;;;19.70;58.15;97816.09;10392102;28;20116;-23
2022/07/08 20:59:05;;;;;;;0.80;0.80;;;;;;;19.69;58.36;97824.56;10396078;28;20365;-23
2022/07/08 21:04:06;;;;;;;0.73;0.63;;;;;;;19.66;58.27;97819.47;10389129;28;20468;-24
2022/07/08 21:09:06;;;;;;;0.73;0.73;;;;;;;19.64;58.36;97823.63;10385603;28;20037;-24
2022/07/08 21:14:06;;;;;;;2.57;0.93;;;;;;;19.64;58.27;97816.00;10384895;28;20041;-24
2022/07/08 21:19:07;;;;;;;0.60;0.60;;;;;;;19.66;58.29;97819.47;10383727;28;20036;-24
2022/07/08 21:24:08;;;;;;;0.88;0.77;;;;;;;19.43;59.02;97815.75;10390608;28;20292;-22
2022/07/08 21:29:08;;;;;;;2.27;1.03;;;;;;;18.80;59.04;97815.63;10397640;28;20033;-23
2022/07/08 21:34:08;;;;;;;4.30;1.20;;;;;;;18.41;58.75;97778.59;10387626;28;20092;-23
2022/07/08 21:39:09;;;;;;;4.05;1.60;;;;;;;18.45;58.80;97800.63;10385072;28;20766;-23
2022/07/08 21:44:09;;;;;;;5.53;1.90;;;;;;;18.40;58.87;97802.25;10390643;28;20393;-24
2022/07/08 21:49:10;;;;;;;5.47;1.88;;;;;;;18.31;59.35;97808.00;10390535;28;20414;-25
2022/07/08 21:54:10;;;;;;;3.30;1.60;;;;;;;18.27;59.20;97805.34;10386918;28;20032;-24
2022/07/08 21:59:10;;;;;;;4.50;1.77;;;;;;;18.19;58.91;97801.81;10393574;28;20074;-24
2022/07/08 22:04:11;;;;;;;3.67;1.63;;;;;;;18.16;58.84;97796.72;10390754;28;20037;-25
2022/07/08 22:09:11;;;;;;;3.63;1.60;;;;;;;18.07;59.33;97788.94;10399723;28;20030;-24
2022/07/08 22:14:11;;;;;;;6.10;2.10;;;;;;;18.02;59.35;97791.38;10393876;28;20026;-24
2022/07/08 22:19:12;;;;;;;4.83;2.33;;;;;;;18.05;58.01;97793.09;10400051;28;20034;-23
2022/07/08 22:24:14;;;;;;;8.20;2.10;;;;;;;17.97;59.65;97789.56;10395229;28;20086;-24
2022/07/08 22:29:14;;;;;;;6.20;2.10;;;;;;;17.96;59.74;97792.94;10402403;28;20287;-23
2022/07/08 22:34:15;;;;;;;5.50;1.93;;;;;;;17.93;58.91;97780.22;10396977;28;20044;-22
2022/07/08 22:39:15;;;;;;;5.20;1.63;;;;;;;17.92;58.74;97789.47;10399379;28;20037;-23
2022/07/08 22:44:15;;;;;;;4.20;1.63;;;;;;;17.93;58.33;97778.53;10393309;28;20036;-24
2022/07/08 22:49:16;;;;;;;3.80;1.63;;;;;;;17.91;58.50;97776.81;10397763;28;20038;-23
2022/07/08 22:54:16;;;;;;;3.20;2.03;;;;;;;17.86;58.47;97775.84;10391607;28;20037;-26
2022/07/08 22:59:16;;;;;;;4.43;1.90;;;;;;;17.85;57.98;97779.22;10395226;28;20323;-25
2022/07/08 23:04:17;;;;;;;6.32;1.70;;;;;;;17.81;58.11;97775.75;10393922;28;20045;-26
2022/07/08 23:09:17;;;;;;;4.40;1.83;;;;;;;17.79;57.71;97774.03;10389824;28;20491;-24
2022/07/08 23:14:18;;;;;;;2.57;1.53;;;;;;;17.77;57.61;97766.41;10395299;28;20299;-23
2022/07/08 23:19:19;;;;;;;2.97;1.55;;;;;;;17.74;56.88;97762.97;10395400;28;20527;-24